createdAt,value
2018-10-02T00:00:55.811Z,66.44
2018-10-02T00:01:55.890Z,66.49
2018-10-02T00:02:55.759Z,66.39
2018-10-02T00:03:55.841Z,66.25
2018-10-02T00:04:55.765Z,66.39
2018-10-02T00:05:55.767Z,65.96
2018-10-02T00:06:55.833Z,66.1
2018-10-02T00:07:55.760Z,66.1
2018-10-02T00:08:55.780Z,66.01
2018-10-02T00:09:55.814Z,65.65
2018-10-02T00:10:55.776Z,65.62
2018-10-02T00:11:55.755Z,65.56
2018-10-02T00:12:55.758Z,65.15
2018-10-02T00:13:55.792Z,65.21
2018-10-02T00:14:55.788Z,65.15
2018-10-02T00:15:55.901Z,65.19
2018-10-02T00:16:55.754Z,65.07
2018-10-02T00:17:55.872Z,64.94
2018-10-02T00:18:55.745Z,65.03
2018-10-02T00:19:55.825Z,65.09
2018-10-02T00:20:55.808Z,65.17
2018-10-02T00:21:55.819Z,65.27
2018-10-02T00:22:56.165Z,65.17
2018-10-02T00:23:55.782Z,65.17
2018-10-02T00:24:55.996Z,65.14
2018-10-02T00:25:55.745Z,64.92
2018-10-02T00:26:55.867Z,64.87
2018-10-02T00:27:56.039Z,65.01
2018-10-02T00:28:55.741Z,65.02
2018-10-02T00:29:55.777Z,65.24
2018-10-02T00:30:55.784Z,65.1
2018-10-02T00:31:56.517Z,65.07
2018-10-02T00:32:55.753Z,65.03
2018-10-02T00:33:56.145Z,65.22
2018-10-02T00:34:55.767Z,65.02
2018-10-02T00:35:55.994Z,65.12
2018-10-02T00:36:55.692Z,65.17
2018-10-02T00:37:55.972Z,65.25
2018-10-02T00:38:55.766Z,65.28
2018-10-02T00:39:56.084Z,65.3
2018-10-02T00:40:55.801Z,65.13
2018-10-02T00:41:55.856Z,65.36
2018-10-02T00:42:56.087Z,65.14
2018-10-02T00:43:55.852Z,65.29
2018-10-02T00:44:55.741Z,65.33
2018-10-02T00:45:55.769Z,65.48
2018-10-02T00:46:56.035Z,65.61
2018-10-02T00:47:55.811Z,65.68
2018-10-02T00:48:55.740Z,65.77
2018-10-02T00:49:55.752Z,65.57
2018-10-02T00:50:55.680Z,65.45
2018-10-02T00:51:55.790Z,65.76
2018-10-02T00:52:55.792Z,65.46
2018-10-02T00:53:55.749Z,65.77
2018-10-02T00:54:56.049Z,65.86
2018-10-02T00:55:55.732Z,66.03
2018-10-02T00:56:55.706Z,65.77
2018-10-02T00:57:55.697Z,65.57
2018-10-02T00:58:55.712Z,65.9
2018-10-02T00:59:55.719Z,65.76
2018-10-02T01:00:55.831Z,65.89
2018-10-02T01:01:55.728Z,65.67
2018-10-02T01:02:55.775Z,65.57
2018-10-02T01:03:55.780Z,65.56
2018-10-02T01:04:55.951Z,65.73
2018-10-02T01:05:55.839Z,66.27
2018-10-02T01:06:55.804Z,66.23
2018-10-02T01:07:55.681Z,65.96
2018-10-02T01:08:55.676Z,66.15
2018-10-02T01:09:56.077Z,65.95
2018-10-02T01:10:55.719Z,65.98
2018-10-02T01:11:55.697Z,65.66
2018-10-02T01:12:55.812Z,66.24
2018-10-02T01:13:55.889Z,66.13
2018-10-02T01:14:55.838Z,66.36
2018-10-02T01:15:56.077Z,66.79
2018-10-02T01:16:55.650Z,66.67
2018-10-02T01:17:55.676Z,66.76
2018-10-02T01:18:55.658Z,67.11
2018-10-02T01:19:55.719Z,67.12
2018-10-02T01:20:55.778Z,67.32
2018-10-02T01:21:55.682Z,67.33
2018-10-02T01:22:55.843Z,67.17
2018-10-02T01:23:55.656Z,67.52
2018-10-02T01:24:55.662Z,67.34
2018-10-02T01:25:55.696Z,67.45
2018-10-02T01:26:55.689Z,67.38
2018-10-02T01:27:55.644Z,67.12
2018-10-02T01:28:55.766Z,67.33
2018-10-02T01:29:55.659Z,67.54
2018-10-02T01:30:55.936Z,67.54
2018-10-02T01:31:55.641Z,67.27
2018-10-02T01:32:55.722Z,67.52
2018-10-02T01:33:55.655Z,66.96
2018-10-02T01:34:55.630Z,67.33
2018-10-02T01:35:55.660Z,67.76
2018-10-02T01:36:55.656Z,67.91
2018-10-02T01:37:55.647Z,67.84
2018-10-02T01:38:55.659Z,67.85
2018-10-02T01:39:55.660Z,67.65
2018-10-02T01:40:55.635Z,67.4
2018-10-02T01:41:55.635Z,67.85
2018-10-02T01:42:55.682Z,67.58
2018-10-02T01:43:55.721Z,67.56
2018-10-02T01:44:55.967Z,67.42
2018-10-02T01:45:55.607Z,67.34
2018-10-02T01:46:55.773Z,67.57
2018-10-02T01:47:55.701Z,67.73
2018-10-02T01:48:55.735Z,67.66
2018-10-02T01:49:55.852Z,67.33
2018-10-02T01:50:55.780Z,67.75
2018-10-02T01:51:55.736Z,68.02
2018-10-02T01:52:55.868Z,67.93
2018-10-02T01:53:55.882Z,67.9
2018-10-02T01:54:55.696Z,68.01
2018-10-02T01:55:55.641Z,68.42
2018-10-02T01:56:55.625Z,68.38
2018-10-02T01:57:55.726Z,68.41
2018-10-02T01:58:55.637Z,68.43
2018-10-02T01:59:55.576Z,68.41
2018-10-02T02:00:55.625Z,68.56
2018-10-02T02:01:55.665Z,68.62
2018-10-02T02:02:55.586Z,68.56
2018-10-02T02:03:55.853Z,68.92
2018-10-02T02:04:55.604Z,68.92
2018-10-02T02:05:55.604Z,68.54
2018-10-02T02:06:55.624Z,68.54
2018-10-02T02:07:55.594Z,68.79
2018-10-02T02:08:55.773Z,68.82
2018-10-02T02:09:55.631Z,68.47
2018-10-02T02:10:55.583Z,68.35
2018-10-02T02:11:55.606Z,68.48
2018-10-02T02:12:55.815Z,68.22
2018-10-02T02:13:55.599Z,68.31
2018-10-02T02:14:55.597Z,68.72
2018-10-02T02:15:55.576Z,68.31
2018-10-02T02:16:55.591Z,68.61
2018-10-02T02:17:55.590Z,68.42
2018-10-02T02:18:55.569Z,68.63
2018-10-02T02:19:55.560Z,68.71
2018-10-02T02:20:55.734Z,68.8
2018-10-02T02:21:55.886Z,68.7
2018-10-02T02:22:55.662Z,68.74
2018-10-02T02:23:55.739Z,69.2
2018-10-02T02:24:55.695Z,68.93
2018-10-02T02:25:55.705Z,68.78
2018-10-02T02:26:55.968Z,68.88
2018-10-02T02:27:55.667Z,69.16
2018-10-02T02:28:55.777Z,69.35
2018-10-02T02:29:55.704Z,69.31
2018-10-02T02:30:55.726Z,69.44
2018-10-02T02:31:55.575Z,69.5
2018-10-02T02:32:55.568Z,69.46
2018-10-02T02:33:55.712Z,69.83
2018-10-02T02:34:55.550Z,69.99
2018-10-02T02:35:55.561Z,69.89
2018-10-02T02:36:56.060Z,69.7
2018-10-02T02:37:55.561Z,69.64
2018-10-02T02:38:55.529Z,69.97
2018-10-02T02:39:55.546Z,69.77
2018-10-02T02:40:55.569Z,69.98
2018-10-02T02:41:55.590Z,69.85
2018-10-02T02:42:55.525Z,70.24
2018-10-02T02:43:55.575Z,70.26
2018-10-02T02:44:55.541Z,70.19
2018-10-02T02:46:55.662Z,70.35
2018-10-02T02:47:55.718Z,70.06
2018-10-02T02:48:55.670Z,69.86
2018-10-02T02:49:55.533Z,69.5
2018-10-02T02:50:55.540Z,69.55
2018-10-02T02:51:55.577Z,69.58
2018-10-02T02:52:55.535Z,69.49
2018-10-02T02:53:55.523Z,69.54
2018-10-02T02:54:55.527Z,69.55
2018-10-02T02:55:55.526Z,69.55
2018-10-02T02:56:55.689Z,69.75
2018-10-02T02:57:55.726Z,69.87
2018-10-02T02:58:55.545Z,69.57
2018-10-02T02:59:55.843Z,69.7
2018-10-02T03:00:55.526Z,69.42
2018-10-02T03:01:55.557Z,69.41
2018-10-02T03:02:55.524Z,69.42
2018-10-02T03:03:55.582Z,69.57
2018-10-02T03:04:55.517Z,69.58
2018-10-02T03:05:55.527Z,69.53
2018-10-02T03:06:55.603Z,69.74
2018-10-02T03:07:55.590Z,70.01
2018-10-02T03:08:55.517Z,69.77
2018-10-02T03:09:55.597Z,69.84
2018-10-02T03:10:55.622Z,70.02
2018-10-02T03:11:55.608Z,69.99
2018-10-02T03:12:55.597Z,70.05
2018-10-02T03:13:55.530Z,70.13
2018-10-02T03:14:55.540Z,70.12
2018-10-02T03:15:55.722Z,69.97
2018-10-02T03:16:55.493Z,69.86
2018-10-02T03:17:55.495Z,69.46
2018-10-02T03:18:55.530Z,70.23
2018-10-02T03:19:55.646Z,70.74
2018-10-02T03:20:55.592Z,70.47
2018-10-02T03:21:56.100Z,70.3
2018-10-02T03:22:55.595Z,70.36
2018-10-02T03:23:55.889Z,70.49
2018-10-02T03:24:55.693Z,70.35
2018-10-02T03:25:55.616Z,69.94
2018-10-02T03:26:55.480Z,70.27
2018-10-02T03:27:55.684Z,70.28
2018-10-02T03:28:55.478Z,70.25
2018-10-02T03:29:55.482Z,70.24
2018-10-02T03:30:55.519Z,70.52
2018-10-02T03:31:55.866Z,70.15
2018-10-02T03:32:55.512Z,70.19
2018-10-02T03:33:55.647Z,70.7
2018-10-02T03:34:55.495Z,70.89
2018-10-02T03:35:55.463Z,71.01
2018-10-02T03:36:55.890Z,70.82
2018-10-02T03:37:56.038Z,70.96
2018-10-02T03:38:55.462Z,71.02
2018-10-02T03:39:55.860Z,70.65
2018-10-02T03:40:55.591Z,71.05
2018-10-02T03:41:55.713Z,71.39
2018-10-02T03:42:55.717Z,71.34
2018-10-02T03:43:55.498Z,71.49
2018-10-02T03:44:55.560Z,71.4
2018-10-02T03:45:55.536Z,71.02
2018-10-02T03:46:55.503Z,70.74
2018-10-02T03:47:55.762Z,70.98
2018-10-02T03:48:56.014Z,70.97
2018-10-02T03:49:55.772Z,70.81
2018-10-02T03:50:55.464Z,71.13
2018-10-02T03:51:55.536Z,71.51
2018-10-02T03:52:55.592Z,71.18
2018-10-02T03:53:55.534Z,71.26
2018-10-02T03:54:55.451Z,71.32
2018-10-02T03:55:55.444Z,71.43
2018-10-02T03:56:55.480Z,71.72
2018-10-02T03:57:55.548Z,71.86
2018-10-02T03:58:55.459Z,71.64
2018-10-02T03:59:55.603Z,72.11
2018-10-02T04:00:55.460Z,71.98
2018-10-02T04:01:55.583Z,71.55
2018-10-02T04:02:55.715Z,71.75
2018-10-02T04:03:55.602Z,71.58
2018-10-02T04:04:55.501Z,72.18
2018-10-02T04:05:55.675Z,71.83
2018-10-02T04:06:55.482Z,71.5
2018-10-02T04:07:55.503Z,71.08
2018-10-02T04:08:55.468Z,71.32
2018-10-02T04:09:55.395Z,71.23
2018-10-02T04:10:55.445Z,71.5
2018-10-02T04:11:55.441Z,71.25
2018-10-02T04:12:55.554Z,71.22
2018-10-02T04:13:55.471Z,71.42
2018-10-02T04:14:55.505Z,71.17
2018-10-02T04:15:55.394Z,72.1
2018-10-02T04:16:55.389Z,71.79
2018-10-02T04:17:55.394Z,71.81
2018-10-02T04:18:55.425Z,71.33
2018-10-02T04:19:55.465Z,71.78
2018-10-02T04:20:55.408Z,71.55
2018-10-02T04:21:55.394Z,71.4
2018-10-02T04:22:55.416Z,71.77
2018-10-02T04:23:55.408Z,71.87
2018-10-02T04:24:55.408Z,71.78
2018-10-02T04:25:55.410Z,71.88
2018-10-02T04:26:55.416Z,72.39
2018-10-02T04:27:55.752Z,72.74
2018-10-02T04:28:55.395Z,73.13
2018-10-02T04:29:55.392Z,73.28
2018-10-02T04:30:55.445Z,72.96
2018-10-02T04:31:55.386Z,72.22
2018-10-02T04:32:55.753Z,72.68
2018-10-02T04:33:56.296Z,72.34
2018-10-02T04:34:55.387Z,71.96
2018-10-02T04:35:55.403Z,72.34
2018-10-02T04:36:55.442Z,72.02
2018-10-02T04:37:55.589Z,72.99
2018-10-02T04:38:55.577Z,73.09
2018-10-02T04:39:55.709Z,72.67
2018-10-02T04:40:55.487Z,73.15
2018-10-02T04:41:55.410Z,72.47
2018-10-02T04:42:55.709Z,72.69
2018-10-02T04:43:55.464Z,72.67
2018-10-02T04:44:55.534Z,72.64
2018-10-02T04:45:55.727Z,72.54
2018-10-02T04:46:55.916Z,73.03
2018-10-02T04:47:55.448Z,72.98
2018-10-02T04:48:55.340Z,72.47
2018-10-02T04:49:55.350Z,73.04
2018-10-02T04:50:55.428Z,73.19
2018-10-02T04:51:55.341Z,72.69
2018-10-02T04:52:55.425Z,72.66
2018-10-02T04:53:55.397Z,72.55
2018-10-02T04:54:55.506Z,72.46
2018-10-02T04:55:55.987Z,72.41
2018-10-02T04:56:55.602Z,72.36
2018-10-02T04:57:55.342Z,72.71
2018-10-02T04:58:55.458Z,72.9
2018-10-02T04:59:55.344Z,72.8
2018-10-02T05:00:55.360Z,73.39
2018-10-02T05:01:55.372Z,73.06
2018-10-02T05:02:55.619Z,74.04
2018-10-02T05:03:55.544Z,74.54
2018-10-02T05:04:56.162Z,74.5
2018-10-02T05:05:55.452Z,74.77
2018-10-02T05:06:55.416Z,74.4
2018-10-02T05:07:55.322Z,74.19
2018-10-02T05:08:55.369Z,74.18
2018-10-02T05:09:55.453Z,73.39
2018-10-02T05:10:58.797Z,74.2
2018-10-02T05:11:55.340Z,74.47
2018-10-02T05:12:55.639Z,73.84
2018-10-02T05:13:56.615Z,73.8
2018-10-02T05:14:55.529Z,73.53
2018-10-02T05:15:55.344Z,73.79
2018-10-02T05:16:55.330Z,74.35
2018-10-02T05:17:55.321Z,74.75
2018-10-02T05:18:55.723Z,74.78
2018-10-02T05:19:55.419Z,74.81
2018-10-02T05:20:55.393Z,74.88
2018-10-02T05:21:55.324Z,74.26
2018-10-02T05:22:55.576Z,74.26
2018-10-02T05:23:55.317Z,74.24
2018-10-02T05:24:55.365Z,74.61
2018-10-02T05:25:55.376Z,74.91
2018-10-02T05:26:55.305Z,74.24
2018-10-02T05:27:55.466Z,74.72
2018-10-02T05:28:55.404Z,74.52
2018-10-02T05:29:55.639Z,74.63
2018-10-02T05:30:55.835Z,74.24
2018-10-02T05:31:55.547Z,74.33
2018-10-02T05:32:55.595Z,74.06
2018-10-02T05:33:55.579Z,74.08
2018-10-02T05:34:55.648Z,74.8
2018-10-02T05:35:55.474Z,75.12
2018-10-02T05:36:55.672Z,75.18
2018-10-02T05:37:55.488Z,74.68
2018-10-02T05:38:55.666Z,75.01
2018-10-02T05:39:55.737Z,74.65
2018-10-02T05:40:55.474Z,74.69
2018-10-02T05:41:55.705Z,75.05
2018-10-02T05:42:55.417Z,74.87
2018-10-02T05:43:56.298Z,75.27
2018-10-02T05:44:55.665Z,75.62
2018-10-02T05:45:55.793Z,75.29
2018-10-02T05:46:55.478Z,75.12
2018-10-02T05:47:55.608Z,74.72
2018-10-02T05:48:56.462Z,75.02
2018-10-02T05:49:56.248Z,75.12
2018-10-02T05:50:57.717Z,75.53
2018-10-02T05:51:57.139Z,75.18
2018-10-02T05:52:56.519Z,75.34
2018-10-02T05:53:55.287Z,75.06
2018-10-02T05:54:58.100Z,75.16
2018-10-02T05:55:58.083Z,75.31
2018-10-02T05:56:57.151Z,75.41
2018-10-02T05:57:55.249Z,75.37
2018-10-02T05:58:55.312Z,75.56
2018-10-02T05:59:55.256Z,75.75
2018-10-02T06:00:55.226Z,75.77
2018-10-02T06:01:55.241Z,75.63
2018-10-02T06:02:55.283Z,75.75
2018-10-02T06:03:55.801Z,76.08
2018-10-02T06:04:55.459Z,75.76
2018-10-02T06:05:55.361Z,76.21
2018-10-02T06:06:55.299Z,75.58
2018-10-02T06:07:55.358Z,75.88
2018-10-02T06:08:55.498Z,75.8
2018-10-02T06:09:55.464Z,75.92
2018-10-02T06:10:55.277Z,76.17
2018-10-02T06:11:55.504Z,76.2
2018-10-02T06:12:55.410Z,75.63
2018-10-02T06:13:55.423Z,75.93
2018-10-02T06:14:55.313Z,75.73
2018-10-02T06:15:55.537Z,75.54
2018-10-02T06:16:55.534Z,75.78
2018-10-02T06:17:55.551Z,75.93
2018-10-02T06:18:55.276Z,76.09
2018-10-02T06:19:55.470Z,76.57
2018-10-02T06:20:55.309Z,76.34
2018-10-02T06:21:55.303Z,75.92
2018-10-02T06:22:55.349Z,76
2018-10-02T06:23:55.399Z,76.29
2018-10-02T06:24:55.281Z,76.17
2018-10-02T06:25:55.225Z,76.02
2018-10-02T06:26:55.303Z,76.16
2018-10-02T06:27:55.242Z,76.41
2018-10-02T06:28:55.372Z,76.41
2018-10-02T06:29:55.221Z,76.33
2018-10-02T06:30:55.725Z,76.07
2018-10-02T06:31:55.367Z,76.56
2018-10-02T06:32:55.267Z,76.16
2018-10-02T06:33:55.326Z,76.08
2018-10-02T06:34:55.247Z,75.78
2018-10-02T06:35:55.214Z,75.76
2018-10-02T06:36:55.638Z,75.95
2018-10-02T06:37:55.471Z,76.03
2018-10-02T06:38:55.685Z,75.7
2018-10-02T06:39:55.301Z,75.34
2018-10-02T06:40:55.233Z,75.81
2018-10-02T06:41:55.226Z,76.18
2018-10-02T06:42:55.418Z,75.85
2018-10-02T06:43:55.219Z,75.97
2018-10-02T06:44:55.373Z,76.04
2018-10-02T06:45:55.252Z,76.08
2018-10-02T06:46:55.214Z,76.19
2018-10-02T06:47:55.232Z,76.3
2018-10-02T06:48:55.571Z,76.27
2018-10-02T06:49:55.162Z,76.48
2018-10-02T06:50:55.722Z,76.28
2018-10-02T06:51:56.007Z,76.65
2018-10-02T06:52:55.482Z,76.48
2018-10-02T06:53:55.365Z,76.4
2018-10-02T06:54:55.425Z,76.62
2018-10-02T06:55:55.267Z,76.59
2018-10-02T06:56:55.507Z,76.89
2018-10-02T06:57:55.423Z,77.21
2018-10-02T06:58:55.181Z,77.57
2018-10-02T06:59:55.176Z,77.15
2018-10-02T07:00:55.170Z,77.17
2018-10-02T07:01:55.203Z,77.64
2018-10-02T07:02:55.473Z,77.65
2018-10-02T07:03:55.221Z,77.27
2018-10-02T07:04:55.160Z,77.58
2018-10-02T07:05:55.173Z,77.77
2018-10-02T07:06:55.412Z,77.25
2018-10-02T07:07:55.157Z,77.67
2018-10-02T07:08:55.362Z,77.68
2018-10-02T07:09:55.129Z,77.5
2018-10-02T07:10:55.172Z,77.62
2018-10-02T07:11:55.141Z,77.58
2018-10-02T07:12:55.154Z,77.04
2018-10-02T07:13:55.114Z,77.04
2018-10-02T07:14:55.349Z,77.26
2018-10-02T07:15:55.155Z,77.25
2018-10-02T07:16:55.116Z,77.36
2018-10-02T07:17:55.124Z,77.6
2018-10-02T07:18:55.123Z,77.87
2018-10-02T07:19:55.108Z,77.93
2018-10-02T07:20:55.318Z,77.53
2018-10-02T07:21:55.113Z,78.26
2018-10-02T07:22:55.140Z,77.85
2018-10-02T07:23:55.117Z,78.05
2018-10-02T07:24:55.127Z,77.88
2018-10-02T07:25:55.165Z,77.88
2018-10-02T07:26:56.433Z,78.04
2018-10-02T07:27:56.617Z,77.9
2018-10-02T07:28:55.193Z,76.79
2018-10-02T07:29:55.430Z,76.96
2018-10-02T07:30:55.386Z,77.05
2018-10-02T07:31:55.342Z,77.01
2018-10-02T07:32:55.476Z,77.07
2018-10-02T07:33:55.800Z,77.22
2018-10-02T07:34:55.363Z,76.63
2018-10-02T07:35:55.112Z,77.01
2018-10-02T07:36:55.540Z,76.74
2018-10-02T07:37:55.238Z,77.44
2018-10-02T07:38:55.246Z,77.47
2018-10-02T07:39:55.142Z,77.45
2018-10-02T07:40:55.216Z,77.14
2018-10-02T07:41:55.656Z,77.42
2018-10-02T07:42:55.136Z,77.3
2018-10-02T07:43:55.042Z,77.56
2018-10-02T07:45:55.139Z,77.31
2018-10-02T07:46:55.215Z,77.05
2018-10-02T07:47:55.409Z,76.84
2018-10-02T07:48:55.356Z,77.04
2018-10-02T07:49:55.202Z,76.72
2018-10-02T07:50:55.324Z,76.73
2018-10-02T07:51:55.122Z,76.86
2018-10-02T07:52:55.093Z,76.48
2018-10-02T07:53:55.492Z,76.57
2018-10-02T07:54:55.052Z,76.31
2018-10-02T07:55:55.123Z,76.11
2018-10-02T07:56:55.738Z,76.2
2018-10-02T07:57:55.087Z,74.98
2018-10-02T07:58:55.447Z,74.97
2018-10-02T07:59:55.157Z,74.97
2018-10-02T08:00:55.187Z,74.3
2018-10-02T08:01:55.355Z,74.53
2018-10-02T08:02:55.596Z,74.48
2018-10-02T08:03:55.073Z,74.95
2018-10-02T08:04:55.716Z,75.01
2018-10-02T08:05:55.474Z,74.68
2018-10-02T08:06:55.062Z,74.46
2018-10-02T08:07:55.064Z,74.38
2018-10-02T08:08:55.361Z,73.89
2018-10-02T08:09:55.408Z,73.91
2018-10-02T08:10:55.060Z,73.84
2018-10-02T08:11:55.495Z,73.39
2018-10-02T08:12:55.070Z,73.13
2018-10-02T08:13:55.135Z,73.4
2018-10-02T08:14:55.372Z,73.24
2018-10-02T08:15:55.056Z,72.94
2018-10-02T08:16:55.084Z,72.88
2018-10-02T08:17:55.452Z,72.88
2018-10-02T08:18:55.864Z,72.24
2018-10-02T08:19:55.408Z,72.04
2018-10-02T08:20:55.569Z,72.14
2018-10-02T08:21:55.103Z,71.71
2018-10-02T08:22:55.180Z,72.03
2018-10-02T08:23:55.511Z,72.23
2018-10-02T08:24:55.159Z,72.19
2018-10-02T08:25:55.048Z,71.73
2018-10-02T08:26:55.791Z,71.82
2018-10-02T08:27:55.233Z,71.88
2018-10-02T08:28:55.080Z,71.92
2018-10-02T08:29:55.603Z,71.98
2018-10-02T08:30:55.059Z,71.77
2018-10-02T08:31:55.159Z,72.02
2018-10-02T08:32:55.252Z,71.9
2018-10-02T08:33:55.089Z,71.92
2018-10-02T08:34:54.992Z,71.86
2018-10-02T08:35:56.009Z,71.58
2018-10-02T08:36:55.003Z,71.41
2018-10-02T08:37:55.033Z,71.47
2018-10-02T08:38:55.155Z,71.28
2018-10-02T08:39:55.008Z,71.07
2018-10-02T08:40:55.015Z,71.13
2018-10-02T08:41:55.409Z,71.14
2018-10-02T08:42:55.121Z,71.29
2018-10-02T08:43:55.556Z,71.42
2018-10-02T08:44:55.387Z,71.24
2018-10-02T08:45:55.039Z,70.88
2018-10-02T08:46:55.011Z,70.62
2018-10-02T08:47:55.258Z,70.49
2018-10-02T08:48:55.060Z,70.23
2018-10-02T08:49:54.996Z,70.11
2018-10-02T08:50:55.207Z,69.94
2018-10-02T08:51:55.909Z,70.03
2018-10-02T08:52:55.043Z,69.54
2018-10-02T08:54:55.227Z,68.93
2018-10-02T08:55:54.993Z,68.7
2018-10-02T08:56:55.179Z,68.74
2018-10-02T08:57:55.231Z,68.86
2018-10-02T08:59:55.096Z,68.75
2018-10-02T09:00:55.228Z,68.14
2018-10-02T09:01:55.153Z,68.26
2018-10-02T09:02:55.109Z,68.43
2018-10-02T09:03:54.608Z,68.21
2018-10-02T09:04:55.115Z,68
2018-10-02T09:05:55.284Z,67.87
2018-10-02T09:06:54.882Z,67.2
2018-10-02T09:07:55.055Z,67.08
2018-10-02T09:08:55.067Z,66.9
2018-10-02T09:09:55.120Z,66.65
2018-10-02T09:10:55.125Z,66.9
2018-10-02T09:11:55.110Z,66.96
2018-10-02T09:12:55.361Z,66.78
2018-10-02T09:13:55.575Z,66.66
2018-10-02T09:14:54.986Z,66.6
2018-10-02T09:15:56.463Z,66.42
2018-10-02T09:16:54.978Z,66.46
2018-10-02T09:17:54.990Z,66.74
2018-10-02T09:18:55.442Z,66.35
2018-10-02T09:19:55.059Z,66.36
2018-10-02T09:20:55.468Z,66.22
2018-10-02T09:21:55.524Z,66.28
2018-10-02T09:22:55.007Z,66.78
2018-10-02T09:23:55.457Z,66.65
2018-10-02T09:24:55.410Z,66.51
2018-10-02T09:25:55.048Z,65.96
2018-10-02T09:26:55.210Z,65.95
2018-10-02T09:27:55.209Z,66.19
2018-10-02T09:28:54.953Z,66.34
2018-10-02T09:29:55.038Z,66.73
2018-10-02T09:30:56.132Z,66.72
2018-10-02T09:31:55.061Z,66.83
2018-10-02T09:32:55.082Z,67.4
2018-10-02T09:33:55.500Z,67.88
2018-10-02T09:34:55.152Z,68.22
2018-10-02T09:35:55.182Z,68.37
2018-10-02T09:36:55.428Z,69.17
2018-10-02T09:37:55.006Z,69.8
2018-10-02T09:38:55.184Z,68.03
2018-10-02T09:39:55.353Z,68.93
2018-10-02T09:40:55.236Z,68.76
2018-10-02T09:41:54.926Z,68.08
2018-10-02T09:42:55.613Z,67.77
2018-10-02T09:43:55.483Z,67.53
2018-10-02T09:44:55.064Z,67.57
2018-10-02T09:45:55.285Z,67.56
2018-10-02T09:46:55.028Z,67.65
2018-10-02T09:47:55.183Z,67.57
2018-10-02T09:48:55.174Z,67.81
2018-10-02T09:49:55.478Z,67.69
2018-10-02T09:50:55.547Z,65.78
2018-10-02T09:51:55.510Z,65.65
2018-10-02T09:52:55.046Z,65.48
2018-10-02T09:53:54.892Z,64.68
2018-10-02T09:54:55.290Z,64.46
2018-10-02T09:55:55.101Z,64.59
2018-10-02T09:56:55.285Z,64.18
2018-10-02T09:57:54.903Z,63.81
2018-10-02T09:58:54.887Z,63.79
2018-10-02T09:59:54.891Z,63.66
2018-10-02T10:00:55.228Z,64.2
2018-10-02T10:01:54.865Z,64.96
2018-10-02T10:02:55.141Z,65.08
2018-10-02T10:03:55.006Z,65.58
2018-10-02T10:04:54.878Z,64.38
2018-10-02T10:05:54.936Z,65.17
2018-10-02T10:06:54.911Z,65.73
2018-10-02T10:07:54.897Z,66.14
2018-10-02T10:08:54.928Z,65.41
2018-10-02T10:09:54.892Z,65.81
2018-10-02T10:10:54.894Z,66.58
2018-10-02T10:11:54.866Z,66.54
2018-10-02T10:12:54.938Z,66.31
2018-10-02T10:13:54.861Z,66.35
2018-10-02T10:14:54.896Z,65.92
2018-10-02T10:15:54.898Z,65.17
2018-10-02T10:16:55.293Z,64.18
2018-10-02T10:17:54.991Z,64.55
2018-10-02T10:18:55.054Z,64.72
2018-10-02T10:19:55.064Z,64.48
2018-10-02T10:20:55.285Z,64.21
2018-10-02T10:21:54.855Z,64.67
2018-10-02T10:22:55.429Z,64.25
2018-10-02T10:23:55.046Z,63.83
2018-10-02T10:24:54.950Z,63.41
2018-10-02T10:25:54.913Z,62.5
2018-10-02T10:26:55.180Z,63.17
2018-10-02T10:27:54.883Z,62.96
2018-10-02T10:28:55.355Z,63.04
2018-10-02T10:29:54.857Z,63.08
2018-10-02T10:30:54.850Z,63.02
2018-10-02T10:31:55.152Z,62.78
2018-10-02T10:32:54.990Z,62.54
2018-10-02T10:33:55.273Z,62.66
2018-10-02T10:34:55.165Z,62.47
2018-10-02T10:35:54.852Z,62.53
2018-10-02T10:36:54.920Z,62.75
2018-10-02T10:37:54.848Z,62.95
2018-10-02T10:38:54.853Z,62.73
2018-10-02T10:39:55.441Z,62.63
2018-10-02T10:40:55.345Z,62.59
2018-10-02T10:41:54.982Z,62.78
2018-10-02T10:42:55.027Z,63
2018-10-02T10:43:54.873Z,62.38
2018-10-02T10:44:54.883Z,62.29
2018-10-02T10:45:54.856Z,62.4
2018-10-02T10:46:55.181Z,62.32
2018-10-02T10:47:55.073Z,62.65
2018-10-02T10:48:55.065Z,62.88
2018-10-02T10:49:54.931Z,63.13
2018-10-02T10:50:54.809Z,63.15
2018-10-02T10:51:55.671Z,63
2018-10-02T10:52:55.324Z,62.69
2018-10-02T10:53:54.902Z,62.75
2018-10-02T10:54:54.815Z,62.59
2018-10-02T10:55:54.891Z,62.65
2018-10-02T10:56:55.109Z,62.76
2018-10-02T10:57:54.947Z,62.75
2018-10-02T10:58:55.018Z,62.79
2018-10-02T10:59:54.952Z,62.56
2018-10-02T11:00:55.040Z,62.58
2018-10-02T11:01:54.862Z,62.52
2018-10-02T11:02:55.301Z,62.43
2018-10-02T11:03:54.841Z,62.77
2018-10-02T11:04:55.104Z,62.64
2018-10-02T11:05:54.782Z,62.84
2018-10-02T11:06:54.815Z,62.57
2018-10-02T11:07:55.116Z,62.67
2018-10-02T11:08:55.001Z,62.91
2018-10-02T11:09:54.984Z,62.83
2018-10-02T11:10:55.245Z,63.03
2018-10-02T11:11:54.771Z,62.75
2018-10-02T11:12:54.801Z,62.39
2018-10-02T11:13:55.183Z,62.18
2018-10-02T11:14:54.883Z,62.31
2018-10-02T11:15:54.917Z,62.29
2018-10-02T11:16:54.993Z,62.06
2018-10-02T11:17:54.809Z,59.8
2018-10-02T11:18:55.021Z,59.95
2018-10-02T11:19:54.865Z,60.26
2018-10-02T11:20:54.848Z,60.63
2018-10-02T11:21:54.799Z,60.52
2018-10-02T11:22:54.768Z,60.58
2018-10-02T11:23:54.940Z,60.79
2018-10-02T11:24:54.774Z,60.72
2018-10-02T11:25:55.584Z,60.67
2018-10-02T11:26:54.768Z,60.87
2018-10-02T11:27:54.752Z,61.24
2018-10-02T11:28:54.757Z,61.42
2018-10-02T11:29:55.130Z,61.72
2018-10-02T11:30:54.807Z,61.67
2018-10-02T11:31:54.751Z,61.81
2018-10-02T11:32:54.785Z,61.97
2018-10-02T11:33:54.782Z,61.71
2018-10-02T11:34:54.747Z,61.72
2018-10-02T11:35:54.751Z,61.43
2018-10-02T11:36:54.770Z,61.51
2018-10-02T11:37:54.761Z,61.5
2018-10-02T11:38:54.739Z,61.61
2018-10-02T11:39:54.775Z,62.04
2018-10-02T11:40:54.753Z,62.25
2018-10-02T11:41:54.800Z,62.08
2018-10-02T11:42:54.815Z,61.49
2018-10-02T11:43:54.976Z,61.75
2018-10-02T11:44:56.165Z,61.74
2018-10-02T11:45:54.872Z,61.52
2018-10-02T11:46:54.768Z,61.78
2018-10-02T11:47:54.744Z,62.19
2018-10-02T11:48:54.815Z,62.43
2018-10-02T11:49:55.951Z,62.7
2018-10-02T11:50:55.146Z,62.85
2018-10-02T11:51:54.744Z,63.21
2018-10-02T11:52:55.009Z,63.49
2018-10-02T11:53:54.910Z,63.99
2018-10-02T11:54:54.705Z,63.8
2018-10-02T11:55:55.109Z,63.6
2018-10-02T11:56:54.717Z,63.88
2018-10-02T11:57:54.704Z,64.1
2018-10-02T11:58:54.849Z,64.48
2018-10-02T11:59:55.141Z,64.86
2018-10-02T12:00:55.361Z,64.91
2018-10-02T12:01:55.152Z,64.8
2018-10-02T12:02:54.910Z,64.86
2018-10-02T12:03:54.755Z,64.94
2018-10-02T12:04:54.741Z,65.1
2018-10-02T12:05:54.689Z,65.24
2018-10-02T12:06:55.244Z,65.15
2018-10-02T12:07:54.992Z,65.16
2018-10-02T12:08:55.058Z,65.1
2018-10-02T12:09:54.785Z,65.11
2018-10-02T12:10:54.772Z,65.02
2018-10-02T12:11:54.693Z,65.05
2018-10-02T12:12:55.258Z,65.44
2018-10-02T12:13:55.459Z,65.5
2018-10-02T12:14:54.954Z,65.83
2018-10-02T12:15:54.787Z,65.75
2018-10-02T12:16:54.838Z,65.75
2018-10-02T12:17:55.089Z,65.72
2018-10-02T12:18:54.890Z,65.61
2018-10-02T12:19:56.431Z,65.8
2018-10-02T12:20:54.753Z,65.59
2018-10-02T12:21:54.778Z,65.73
2018-10-02T12:22:54.708Z,66.03
2018-10-02T12:23:55.003Z,66.48
2018-10-02T12:24:54.761Z,66.67
2018-10-02T12:25:54.783Z,66.64
2018-10-02T12:26:54.699Z,67.4
2018-10-02T12:27:54.711Z,67.21
2018-10-02T12:28:54.696Z,67.5
2018-10-02T12:29:54.840Z,67.68
2018-10-02T12:30:54.682Z,66.95
2018-10-02T12:31:55.478Z,66.67
2018-10-02T12:32:54.685Z,66.78
2018-10-02T12:33:54.797Z,66.92
2018-10-02T12:35:54.665Z,66.12
2018-10-02T12:36:54.982Z,65.65
2018-10-02T12:37:54.694Z,65.21
2018-10-02T12:38:54.908Z,64.82
2018-10-02T12:39:54.811Z,64.55
2018-10-02T12:40:54.767Z,64.28
2018-10-02T12:41:54.913Z,63.8
2018-10-02T12:42:54.696Z,63.58
2018-10-02T12:43:54.706Z,63.64
2018-10-02T12:44:54.802Z,64.21
2018-10-02T12:45:54.708Z,64.07
2018-10-02T12:46:55.067Z,64.37
2018-10-02T12:47:56.994Z,64.53
2018-10-02T12:48:58.194Z,64.65
2018-10-02T12:49:57.070Z,64.58
2018-10-02T12:50:58.703Z,64.5
2018-10-02T12:51:58.089Z,65.06
2018-10-02T12:52:59.335Z,64.97
2018-10-02T12:53:54.650Z,65.43
2018-10-02T12:54:54.643Z,64.8
2018-10-02T12:55:54.647Z,64.3
2018-10-02T12:56:54.654Z,64.54
2018-10-02T12:57:54.660Z,64.65
2018-10-02T12:58:54.738Z,64.78
2018-10-02T12:59:54.714Z,64.36
2018-10-02T13:00:54.700Z,64.1